Time;durP1;ratioP1;P1;durP2;ratioP2;P2;SDS_P1;SDS_P2;PMS_P1;PMS_P2;Temp;Humidity;BMP_temperature;BMP_pressure;BME280_temperature;BME280_humidity;BME280_pressure;Samples;Min_cycle;Max_cycle;Signal;HPM_P1;HPM_P2
2023/05/03 00:01:20;;;;;;;19.80;9.13;;;;;;;;;;2544835;23;20010;-72
2023/05/03 00:02:43;;;;;;;31.48;11.32;;;;;;;;;;2537279;23;20014;-72
2023/05/03 00:04:04;;;;;;;12.43;7.40;;;;;;;;;;2541607;23;20017;-72
2023/05/03 00:05:25;;;;;;;21.92;9.10;;;;;;;;;;2553263;23;20431;-72
2023/05/03 00:06:46;;;;;;;26.42;10.63;;;;;;;;;;2544647;23;20018;-72
2023/05/03 00:08:07;;;;;;;12.00;7.75;;;;;;;;;;2542019;23;20009;-72
2023/05/03 00:09:27;;;;;;;10.02;7.43;;;;;;;;;;2545726;23;20014;-72
2023/05/03 00:10:48;;;;;;;10.75;8.02;;;;;;;;;;2546036;23;20010;-72
2023/05/03 00:12:09;;;;;;;8.02;6.88;;;;;;;;;;2557390;23;20409;-72
2023/05/03 00:13:30;;;;;;;10.90;7.63;;;;;;;;;;2547130;23;20009;-72
2023/05/03 00:14:51;;;;;;;8.15;7.35;;;;;;;;;;2546100;23;20020;-72
2023/05/03 00:16:12;;;;;;;19.98;8.63;;;;;;;;;;2545288;23;20010;-72
2023/05/03 00:17:33;;;;;;;9.52;7.70;;;;;;;;;;2544996;23;20009;-72
2023/05/03 00:18:54;;;;;;;8.65;7.50;;;;;;;;;;2539404;23;20013;-72
2023/05/03 00:20:14;;;;;;;9.40;7.60;;;;;;;;;;2544318;23;20013;-72
2023/05/03 00:21:36;;;;;;;7.95;7.22;;;;;;;;;;2545172;23;20013;-72
2023/05/03 00:22:56;;;;;;;13.57;7.35;;;;;;;;;;2553877;23;20024;-72
2023/05/03 00:24:17;;;;;;;10.52;7.32;;;;;;;;;;2550112;23;20020;-72
2023/05/03 00:25:38;;;;;;;8.48;6.78;;;;;;;;;;2545900;23;20010;-72
2023/05/03 00:26:59;;;;;;;14.07;7.13;;;;;;;;;;2545444;23;20447;-72
2023/05/03 00:28:20;;;;;;;9.93;7.68;;;;;;;;;;2546259;23;20347;-71
2023/05/03 00:29:41;;;;;;;9.13;7.38;;;;;;;;;;2544026;23;20342;-72
2023/05/03 00:31:06;;;;;;;14.30;7.57;;;;;;;;;;2545469;23;20016;-73
2023/05/03 00:32:27;;;;;;;9.88;7.30;;;;;;;;;;2545968;23;20014;-73
2023/05/03 00:33:48;;;;;;;21.15;9.18;;;;;;;;;;2543949;23;20009;-74
2023/05/03 00:35:09;;;;;;;9.57;7.07;;;;;;;;;;2543730;23;20010;-73
2023/05/03 00:36:29;;;;;;;10.52;7.13;;;;;;;;;;2545827;23;20018;-73
2023/05/03 00:37:50;;;;;;;10.23;7.45;;;;;;;;;;2557434;23;20009;-75
2023/05/03 00:39:12;;;;;;;14.60;8.43;;;;;;;;;;2544166;23;20009;-73
2023/05/03 00:40:33;;;;;;;27.17;11.07;;;;;;;;;;2544036;23;20029;-73
2023/05/03 00:41:58;;;;;;;24.63;10.32;;;;;;;;;;2539841;23;20192;-73
2023/05/03 00:43:19;;;;;;;10.65;8.07;;;;;;;;;;2542962;23;20473;-74
2023/05/03 00:44:39;;;;;;;13.27;8.25;;;;;;;;;;2544926;23;20013;-73
2023/05/03 00:46:02;;;;;;;9.35;7.07;;;;;;;;;;2545717;23;20009;-71
2023/05/03 00:47:23;;;;;;;8.98;7.07;;;;;;;;;;2545852;23;20439;-71
2023/05/03 00:48:46;;;;;;;8.70;7.88;;;;;;;;;;2542574;23;20052;-71
2023/05/03 00:50:10;;;;;;;16.33;9.35;;;;;;;;;;2538122;23;20449;-72
2023/05/03 00:51:32;;;;;;;11.55;7.90;;;;;;;;;;2544739;23;20013;-72
2023/05/03 00:52:53;;;;;;;27.77;10.50;;;;;;;;;;2541726;23;20056;-71
2023/05/03 00:54:14;;;;;;;25.27;10.27;;;;;;;;;;2540461;23;20014;-72
2023/05/03 00:55:35;;;;;;;12.98;8.23;;;;;;;;;;2543662;23;20009;-71
2023/05/03 00:56:56;;;;;;;10.77;7.22;;;;;;;;;;2543478;23;20020;-72
2023/05/03 00:58:16;;;;;;;12.07;7.88;;;;;;;;;;2543616;23;20072;-71
2023/05/03 00:59:38;;;;;;;8.80;7.15;;;;;;;;;;2545023;23;20390;-72
2023/05/03 01:00:59;;;;;;;25.75;10.60;;;;;;;;;;2539390;23;20017;-72
2023/05/03 01:02:20;;;;;;;9.40;7.75;;;;;;;;;;2543276;23;20443;-72
2023/05/03 01:03:41;;;;;;;10.90;7.80;;;;;;;;;;2544156;23;20028;-73
2023/05/03 01:05:06;;;;;;;10.20;7.80;;;;;;;;;;2538809;23;20018;-72
2023/05/03 01:06:33;;;;;;;16.10;8.38;;;;;;;;;;2543390;23;20439;-72
2023/05/03 01:08:10;;;;;;;9.25;8.05;;;;;;;;;;2545712;23;20010;-72
2023/05/03 01:09:38;;;;;;;10.02;7.63;;;;;;;;;;2542233;23;20009;-72
2023/05/03 01:11:07;;;;;;;11.48;7.95;;;;;;;;;;2542683;23;20466;-73
2023/05/03 01:12:39;;;;;;;8.85;7.85;;;;;;;;;;2541823;23;20010;-73
2023/05/03 01:14:00;;;;;;;;;;;;;;;;;;2545592;23;20012;-74
2023/05/03 01:15:39;;;;;;;10.40;8.02;;;;;;;;;;2545914;23;19905;-73
2023/05/03 01:17:02;;;;;;;14.40;8.43;;;;;;;;;;2544747;23;20371;-72
2023/05/03 01:18:27;;;;;;;11.13;7.55;;;;;;;;;;2545929;23;20061;-73
2023/05/03 01:19:50;;;;;;;10.45;8.43;;;;;;;;;;2545550;23;20351;-72
2023/05/03 01:21:12;;;;;;;19.52;9.25;;;;;;;;;;2544091;23;20024;-73
2023/05/03 01:22:38;;;;;;;16.92;8.98;;;;;;;;;;2545767;23;20118;-73
2023/05/03 01:23:59;;;;;;;12.13;8.00;;;;;;;;;;2543137;23;20014;-73
2023/05/03 01:25:20;;;;;;;8.02;7.18;;;;;;;;;;2545653;23;20462;-73
2023/05/03 01:26:41;;;;;;;10.80;7.70;;;;;;;;;;2553244;23;20021;-74
2023/05/03 01:28:02;;;;;;;11.13;7.78;;;;;;;;;;2556929;23;20005;-73
2023/05/03 01:29:23;;;;;;;32.45;11.35;;;;;;;;;;2550378;23;20513;-73
2023/05/03 01:30:44;;;;;;;15.77;8.40;;;;;;;;;;2543881;23;20043;-73
2023/05/03 01:32:07;;;;;;;11.35;8.07;;;;;;;;;;2546265;23;20350;-73
2023/05/03 01:33:46;;;;;;;13.25;8.45;;;;;;;;;;2544493;23;20394;-74
2023/05/03 01:35:06;;;;;;;14.00;8.55;;;;;;;;;;2543629;23;20013;-73
2023/05/03 01:36:33;;;;;;;29.73;11.27;;;;;;;;;;2538629;23;20017;-74
2023/05/03 01:37:56;;;;;;;29.30;11.57;;;;;;;;;;2538175;23;20041;-75
2023/05/03 01:39:19;;;;;;;30.27;11.18;;;;;;;;;;2539373;23;20028;-74
2023/05/03 01:40:42;;;;;;;27.40;11.40;;;;;;;;;;2540192;23;20014;-74
2023/05/03 01:42:04;;;;;;;12.77;8.75;;;;;;;;;;2543941;23;20021;-74
2023/05/03 01:43:25;;;;;;;16.50;8.73;;;;;;;;;;2542454;23;20010;-74
2023/05/03 01:44:47;;;;;;;12.48;8.35;;;;;;;;;;2532161;23;20010;-74
2023/05/03 01:46:08;;;;;;;13.05;9.05;;;;;;;;;;2543071;23;20347;-74
2023/05/03 01:47:29;;;;;;;20.58;9.80;;;;;;;;;;2542322;23;20009;-74
2023/05/03 01:48:50;;;;;;;14.48;8.63;;;;;;;;;;2543900;23;20010;-74
2023/05/03 01:50:11;;;;;;;10.75;7.55;;;;;;;;;;2541116;23;20009;-74
2023/05/03 01:51:32;;;;;;;13.95;8.43;;;;;;;;;;2544751;23;20009;-73
2023/05/03 01:52:53;;;;;;;11.68;8.00;;;;;;;;;;2544411;23;20009;-73
2023/05/03 01:54:15;;;;;;;11.20;8.13;;;;;;;;;;2530684;23;20495;-72
2023/05/03 01:55:35;;;;;;;14.00;8.07;;;;;;;;;;2540098;23;20017;-73
2023/05/03 01:56:56;;;;;;;12.70;8.43;;;;;;;;;;2544223;23;20013;-73
2023/05/03 01:58:17;;;;;;;9.73;7.78;;;;;;;;;;2542894;23;20018;-73
2023/05/03 01:59:38;;;;;;;10.40;7.88;;;;;;;;;;2543394;23;20010;-73
2023/05/03 02:00:59;;;;;;;12.25;8.55;;;;;;;;;;2544020;23;20014;-73
2023/05/03 02:02:21;;;;;;;10.20;8.20;;;;;;;;;;2543269;23;20013;-73
2023/05/03 02:03:42;;;;;;;13.68;8.00;;;;;;;;;;2531312;23;20518;-73
2023/05/03 02:05:03;;;;;;;14.18;8.10;;;;;;;;;;2542707;23;20304;-73
2023/05/03 02:06:24;;;;;;;13.68;8.30;;;;;;;;;;2552774;23;20067;-73
2023/05/03 02:07:45;;;;;;;10.98;8.32;;;;;;;;;;2536275;23;20018;-73
2023/05/03 02:09:07;;;;;;;12.32;8.82;;;;;;;;;;2531739;23;20010;-73
2023/05/03 02:10:28;;;;;;;13.38;8.40;;;;;;;;;;2539563;23;20017;-73
2023/05/03 02:11:49;;;;;;;13.80;8.65;;;;;;;;;;2541908;23;20010;-73
2023/05/03 02:13:10;;;;;;;11.73;7.93;;;;;;;;;;2532664;23;20014;-73
2023/05/03 02:14:31;;;;;;;14.43;8.95;;;;;;;;;;2539295;23;20010;-73
2023/05/03 02:15:53;;;;;;;15.35;8.63;;;;;;;;;;2545824;23;20010;-73
2023/05/03 02:17:16;;;;;;;12.00;8.60;;;;;;;;;;2532623;23;20061;-73
2023/05/03 02:18:37;;;;;;;12.73;8.48;;;;;;;;;;2539475;23;20084;-73
2023/05/03 02:19:57;;;;;;;9.68;8.40;;;;;;;;;;2543295;23;20021;-73
2023/05/03 02:21:18;;;;;;;11.85;8.07;;;;;;;;;;2536732;23;20036;-74
2023/05/03 02:22:39;;;;;;;22.35;10.60;;;;;;;;;;2542643;23;20335;-73
2023/05/03 02:24:00;;;;;;;22.50;10.65;;;;;;;;;;2530794;23;20022;-74
2023/05/03 02:25:21;;;;;;;13.45;8.55;;;;;;;;;;2540129;23;20022;-73
2023/05/03 02:26:42;;;;;;;17.05;8.95;;;;;;;;;;2535292;23;20017;-74
2023/05/03 02:28:03;;;;;;;15.40;9.30;;;;;;;;;;2532018;23;20017;-73
2023/05/03 02:29:24;;;;;;;13.77;8.48;;;;;;;;;;2532290;23;20029;-74
2023/05/03 02:30:45;;;;;;;13.60;8.18;;;;;;;;;;2538925;23;20021;-73
2023/05/03 02:32:06;;;;;;;14.65;8.20;;;;;;;;;;2543144;23;20012;-73
2023/05/03 02:33:27;;;;;;;16.90;9.20;;;;;;;;;;2544758;23;20497;-73
2023/05/03 02:34:48;;;;;;;9.57;7.57;;;;;;;;;;2533221;23;20057;-73
2023/05/03 02:36:09;;;;;;;10.87;7.83;;;;;;;;;;2541478;23;20010;-73
2023/05/03 02:37:30;;;;;;;14.85;8.65;;;;;;;;;;2544196;23;20761;-73
2023/05/03 02:38:51;;;;;;;14.63;9.20;;;;;;;;;;2542320;23;20041;-73
2023/05/03 02:40:11;;;;;;;12.73;8.50;;;;;;;;;;2543714;23;20009;-74
2023/05/03 02:41:32;;;;;;;11.27;7.95;;;;;;;;;;2543758;23;20009;-73
2023/05/03 02:42:53;;;;;;;13.68;8.93;;;;;;;;;;2542249;23;20052;-73
2023/05/03 02:44:14;;;;;;;10.77;8.30;;;;;;;;;;2542929;23;20017;-73
2023/05/03 02:45:35;;;;;;;9.70;8.35;;;;;;;;;;2542202;23;20016;-73
2023/05/03 02:46:56;;;;;;;12.65;8.70;;;;;;;;;;2545325;23;20359;-77
2023/05/03 02:48:17;;;;;;;12.77;9.05;;;;;;;;;;2543691;23;20014;-77
2023/05/03 02:49:38;;;;;;;12.13;8.75;;;;;;;;;;2545205;23;20006;-79
2023/05/03 02:50:59;;;;;;;13.90;10.50;;;;;;;;;;2532653;23;20356;-78
2023/05/03 02:52:20;;;;;;;17.67;9.70;;;;;;;;;;2541145;23;20005;-78
2023/05/03 02:53:41;;;;;;;17.35;10.15;;;;;;;;;;2532674;23;20006;-78
2023/05/03 02:55:02;;;;;;;14.30;8.90;;;;;;;;;;2543210;23;20010;-79
2023/05/03 02:56:25;;;;;;;14.75;9.35;;;;;;;;;;2544823;23;20010;-78
2023/05/03 02:57:46;;;;;;;12.02;9.57;;;;;;;;;;2545921;23;20343;-77
2023/05/03 02:59:07;;;;;;;16.52;8.75;;;;;;;;;;2544004;23;20016;-78
2023/05/03 03:00:27;;;;;;;13.15;9.18;;;;;;;;;;2533167;23;20021;-78
2023/05/03 03:01:48;;;;;;;14.27;9.30;;;;;;;;;;2539460;23;20013;-77
2023/05/03 03:03:09;;;;;;;13.38;9.75;;;;;;;;;;2535443;23;20425;-77
2023/05/03 03:04:30;;;;;;;14.77;9.43;;;;;;;;;;2539994;23;20009;-77
2023/05/03 03:05:51;;;;;;;13.70;9.10;;;;;;;;;;2543843;23;20010;-77
2023/05/03 03:07:12;;;;;;;10.77;8.57;;;;;;;;;;2542624;23;20013;-80
2023/05/03 03:08:33;;;;;;;11.18;9.45;;;;;;;;;;2543896;23;20006;-77
2023/05/03 03:09:54;;;;;;;32.30;11.93;;;;;;;;;;2529992;23;20482;-77
2023/05/03 03:11:15;;;;;;;12.50;8.40;;;;;;;;;;2540234;23;20017;-77
2023/05/03 03:12:36;;;;;;;16.80;10.02;;;;;;;;;;2531840;23;20013;-78
2023/05/03 03:13:56;;;;;;;10.60;8.18;;;;;;;;;;2542654;23;20006;-78
2023/05/03 03:15:17;;;;;;;28.38;11.70;;;;;;;;;;2530343;23;20013;-78
2023/05/03 03:16:38;;;;;;;16.15;9.25;;;;;;;;;;2534036;23;20353;-78
2023/05/03 03:17:59;;;;;;;13.82;8.65;;;;;;;;;;2541989;23;20067;-77
2023/05/03 03:19:20;;;;;;;14.73;9.20;;;;;;;;;;2532978;23;20014;-78
2023/05/03 03:20:41;;;;;;;17.05;9.82;;;;;;;;;;2540018;23;20010;-77
2023/05/03 03:22:02;;;;;;;12.02;8.90;;;;;;;;;;2533467;23;20018;-78
2023/05/03 03:23:23;;;;;;;16.08;9.20;;;;;;;;;;2528986;23;20014;-78
2023/05/03 03:24:44;;;;;;;12.40;8.88;;;;;;;;;;2551636;23;20443;-77
2023/05/03 03:26:05;;;;;;;15.55;9.48;;;;;;;;;;2550663;23;20010;-77
2023/05/03 03:27:26;;;;;;;13.23;8.93;;;;;;;;;;2544920;23;20010;-78
2023/05/03 03:28:47;;;;;;;13.35;9.13;;;;;;;;;;2541182;23;20006;-77
2023/05/03 03:30:08;;;;;;;11.43;9.20;;;;;;;;;;2542873;23;20328;-78
2023/05/03 03:31:29;;;;;;;18.13;9.27;;;;;;;;;;2543269;23;20017;-76
2023/05/03 03:32:51;;;;;;;11.65;8.48;;;;;;;;;;2534583;23;20348;-78
2023/05/03 03:34:12;;;;;;;19.15;10.98;;;;;;;;;;2531339;23;20033;-78
2023/05/03 03:35:33;;;;;;;13.25;9.20;;;;;;;;;;2543011;23;20013;-78
2023/05/03 03:36:55;;;;;;;15.40;9.85;;;;;;;;;;2544804;23;20060;-78
2023/05/03 03:38:15;;;;;;;13.52;9.05;;;;;;;;;;2543091;23;20021;-78
2023/05/03 03:39:38;;;;;;;12.90;9.13;;;;;;;;;;2543648;23;20010;-78
2023/05/03 03:40:59;;;;;;;11.95;9.02;;;;;;;;;;2542229;23;20017;-77
2023/05/03 03:42:22;;;;;;;16.35;9.27;;;;;;;;;;2543854;23;20013;-77
2023/05/03 03:43:43;;;;;;;15.00;9.40;;;;;;;;;;2544823;23;20430;-78
2023/05/03 03:45:04;;;;;;;12.77;9.15;;;;;;;;;;2544492;23;20021;-78
2023/05/03 03:46:25;;;;;;;31.33;12.60;;;;;;;;;;2542457;23;20014;-78
2023/05/03 03:47:46;;;;;;;32.72;12.35;;;;;;;;;;2541809;23;20452;-78
2023/05/03 03:49:07;;;;;;;29.55;12.60;;;;;;;;;;2541723;23;20455;-77
2023/05/03 03:50:28;;;;;;;28.45;12.23;;;;;;;;;;2543060;23;20024;-77
2023/05/03 03:51:49;;;;;;;29.23;11.32;;;;;;;;;;2540865;23;20017;-78
2023/05/03 03:53:10;;;;;;;20.92;10.38;;;;;;;;;;2545919;23;20324;-78
2023/05/03 03:54:31;;;;;;;15.93;9.90;;;;;;;;;;2545591;23;20430;-77
2023/05/03 03:55:52;;;;;;;27.33;12.05;;;;;;;;;;2542396;23;20014;-77
2023/05/03 03:57:13;;;;;;;28.42;12.57;;;;;;;;;;2540826;23;20035;-78
2023/05/03 03:58:34;;;;;;;16.95;9.93;;;;;;;;;;2545457;23;20454;-78
2023/05/03 03:59:56;;;;;;;13.02;8.95;;;;;;;;;;2543337;23;20065;-78
2023/05/03 04:01:17;;;;;;;29.25;13.40;;;;;;;;;;2537140;23;20025;-78
2023/05/03 04:02:37;;;;;;;13.25;9.30;;;;;;;;;;2554618;23;20019;-78
2023/05/03 04:03:58;;;;;;;18.63;9.60;;;;;;;;;;2558277;23;20016;-77
2023/05/03 04:05:19;;;;;;;12.60;8.73;;;;;;;;;;2545028;23;20014;-78
2023/05/03 04:06:40;;;;;;;10.43;8.80;;;;;;;;;;2546073;23;20075;-77
2023/05/03 04:08:01;;;;;;;14.98;9.40;;;;;;;;;;2551108;23;20361;-77
2023/05/03 04:09:22;;;;;;;18.13;9.85;;;;;;;;;;2557680;23;20016;-77
2023/05/03 04:10:43;;;;;;;12.85;9.07;;;;;;;;;;2555623;23;20005;-77
2023/05/03 04:12:04;;;;;;;13.40;9.15;;;;;;;;;;2556048;23;20052;-78
2023/05/03 04:13:25;;;;;;;12.27;9.07;;;;;;;;;;2557249;23;20009;-78
2023/05/03 04:14:46;;;;;;;19.45;10.43;;;;;;;;;;2557853;23;20009;-78
2023/05/03 04:16:07;;;;;;;15.02;9.45;;;;;;;;;;2545102;23;20009;-77
2023/05/03 04:17:28;;;;;;;11.93;9.57;;;;;;;;;;2553920;23;20021;-78
2023/05/03 04:18:49;;;;;;;11.05;9.32;;;;;;;;;;2557552;23;20430;-78
2023/05/03 04:20:10;;;;;;;15.68;9.52;;;;;;;;;;2544146;23;20013;-78
2023/05/03 04:21:31;;;;;;;10.13;9.13;;;;;;;;;;2541600;23;20088;-78
2023/05/03 04:22:52;;;;;;;15.25;9.20;;;;;;;;;;2541655;23;20383;-78
2023/05/03 04:24:16;;;;;;;15.18;9.57;;;;;;;;;;2542081;23;20010;-78
2023/05/03 04:25:37;;;;;;;12.38;9.57;;;;;;;;;;2542049;23;20013;-77
2023/05/03 04:27:00;;;;;;;13.90;9.80;;;;;;;;;;2542827;23;20025;-78
2023/05/03 04:28:21;;;;;;;14.02;9.50;;;;;;;;;;2553439;23;20454;-78
2023/05/03 04:29:42;;;;;;;15.25;9.15;;;;;;;;;;2556795;23;20009;-78
2023/05/03 04:31:03;;;;;;;17.52;10.68;;;;;;;;;;2542476;23;20054;-77
2023/05/03 04:32:25;;;;;;;13.10;9.70;;;;;;;;;;2542019;23;20013;-78
2023/05/03 04:33:46;;;;;;;16.48;9.73;;;;;;;;;;2542150;23;20013;-78
2023/05/03 04:35:08;;;;;;;11.68;9.05;;;;;;;;;;2553935;23;20009;-77
2023/05/03 04:36:29;;;;;;;17.92;10.27;;;;;;;;;;2543276;23;20463;-78
2023/05/03 04:37:50;;;;;;;18.80;10.38;;;;;;;;;;2540492;23;20009;-78
2023/05/03 04:39:11;;;;;;;21.77;11.45;;;;;;;;;;2537543;23;20401;-78
2023/05/03 04:40:33;;;;;;;14.13;10.27;;;;;;;;;;2554685;23;20083;-78
2023/05/03 04:41:54;;;;;;;16.80;9.90;;;;;;;;;;2553962;23;20406;-77
2023/05/03 04:43:15;;;;;;;13.88;9.02;;;;;;;;;;2557267;23;20020;-78
2023/05/03 04:44:36;;;;;;;17.55;9.88;;;;;;;;;;2556635;23;20068;-77
2023/05/03 04:45:57;;;;;;;12.45;9.10;;;;;;;;;;2543698;23;20009;-77
2023/05/03 04:47:18;;;;;;;14.68;9.82;;;;;;;;;;2540839;23;20006;-77
2023/05/03 04:48:39;;;;;;;17.92;10.88;;;;;;;;;;2553991;23;20526;-78
2023/05/03 04:50:00;;;;;;;11.35;8.90;;;;;;;;;;2544154;23;20009;-77
2023/05/03 04:51:22;;;;;;;28.85;12.27;;;;;;;;;;2550831;23;20084;-77
2023/05/03 04:52:43;;;;;;;24.20;11.57;;;;;;;;;;2540891;23;20010;-78
2023/05/03 04:54:05;;;;;;;12.95;9.65;;;;;;;;;;2554577;23;20505;-77
2023/05/03 04:55:25;;;;;;;17.48;9.77;;;;;;;;;;2557357;23;20005;-78
2023/05/03 04:56:46;;;;;;;11.93;9.75;;;;;;;;;;2544776;23;20427;-78
2023/05/03 04:58:07;;;;;;;14.13;10.27;;;;;;;;;;2540648;23;20017;-78
2023/05/03 04:59:28;;;;;;;23.13;10.57;;;;;;;;;;2551580;23;20017;-78
2023/05/03 05:00:49;;;;;;;14.32;9.32;;;;;;;;;;2556171;23;20035;-78
2023/05/03 05:02:10;;;;;;;14.15;9.40;;;;;;;;;;2556497;23;20071;-77
2023/05/03 05:03:31;;;;;;;18.27;9.98;;;;;;;;;;2545952;23;20017;-78
2023/05/03 05:04:52;;;;;;;11.70;9.25;;;;;;;;;;2554605;23;20009;-79
2023/05/03 05:06:13;;;;;;;10.43;9.07;;;;;;;;;;2544563;23;20119;-78
2023/05/03 05:07:34;;;;;;;11.80;9.27;;;;;;;;;;2554382;23;20016;-78
2023/05/03 05:08:55;;;;;;;12.73;8.90;;;;;;;;;;2542745;23;20363;-79
2023/05/03 05:10:16;;;;;;;16.88;11.40;;;;;;;;;;2554437;23;20009;-78
2023/05/03 05:11:37;;;;;;;13.85;9.73;;;;;;;;;;2555774;23;20017;-77
2023/05/03 05:12:58;;;;;;;12.50;9.20;;;;;;;;;;2542827;23;20013;-78
2023/05/03 05:14:19;;;;;;;13.75;9.52;;;;;;;;;;2552441;23;20012;-78
2023/05/03 05:15:40;;;;;;;14.52;9.65;;;;;;;;;;2545579;23;20316;-78
2023/05/03 05:17:01;;;;;;;15.90;9.80;;;;;;;;;;2551974;23;20373;-78
2023/05/03 05:18:21;;;;;;;26.48;11.52;;;;;;;;;;2556267;23;20005;-78
2023/05/03 05:19:42;;;;;;;16.70;10.73;;;;;;;;;;2556299;23;20005;-78
2023/05/03 05:21:03;;;;;;;18.45;10.48;;;;;;;;;;2558338;23;20009;-78
2023/05/03 05:22:24;;;;;;;15.02;9.38;;;;;;;;;;2554876;23;20016;-78
2023/05/03 05:23:46;;;;;;;15.23;9.45;;;;;;;;;;2545520;23;20017;-78
2023/05/03 05:25:07;;;;;;;11.98;9.75;;;;;;;;;;2540524;23;20010;-78
2023/05/03 05:26:28;;;;;;;27.05;10.88;;;;;;;;;;2553058;23;20021;-78
2023/05/03 05:27:49;;;;;;;16.05;9.75;;;;;;;;;;2555736;23;20005;-78
2023/05/03 05:29:09;;;;;;;18.13;10.48;;;;;;;;;;2544749;23;20010;-78
2023/05/03 05:30:30;;;;;;;25.35;11.80;;;;;;;;;;2550272;23;20036;-78
2023/05/03 05:31:51;;;;;;;15.75;9.25;;;;;;;;;;2555473;23;20032;-78
2023/05/03 05:33:12;;;;;;;16.52;10.27;;;;;;;;;;2544043;23;20009;-78
2023/05/03 05:34:33;;;;;;;14.23;10.00;;;;;;;;;;2552173;23;20016;-78
2023/05/03 05:35:54;;;;;;;14.65;9.93;;;;;;;;;;2556664;23;20009;-78
2023/05/03 05:37:15;;;;;;;17.30;10.10;;;;;;;;;;2557380;23;20316;-78
2023/05/03 05:38:36;;;;;;;16.20;10.20;;;;;;;;;;2557210;23;20013;-78
2023/05/03 05:39:57;;;;;;;15.68;10.10;;;;;;;;;;2557981;23;20009;-78
2023/05/03 05:41:17;;;;;;;21.08;10.35;;;;;;;;;;2556046;23;20009;-79
2023/05/03 05:42:38;;;;;;;21.20;10.40;;;;;;;;;;2553353;23;20025;-78
2023/05/03 05:43:59;;;;;;;13.50;9.25;;;;;;;;;;2555637;23;20009;-78
2023/05/03 05:45:20;;;;;;;29.58;12.73;;;;;;;;;;2553928;23;20024;-78
2023/05/03 05:46:41;;;;;;;26.83;12.05;;;;;;;;;;2536570;23;20095;-78
2023/05/03 05:48:03;;;;;;;30.45;12.52;;;;;;;;;;2548679;23;20009;-78
2023/05/03 05:49:24;;;;;;;34.95;13.60;;;;;;;;;;2540337;23;20009;-77
2023/05/03 05:50:45;;;;;;;11.98;9.38;;;;;;;;;;2539049;23;20324;-78
2023/05/03 05:52:06;;;;;;;12.82;9.38;;;;;;;;;;2550678;23;20064;-78
2023/05/03 05:53:27;;;;;;;24.23;11.55;;;;;;;;;;2555127;23;20009;-78
2023/05/03 05:54:48;;;;;;;16.20;9.30;;;;;;;;;;2558156;23;20438;-78
2023/05/03 05:56:10;;;;;;;18.90;9.02;;;;;;;;;;2543488;23;20024;-77
2023/05/03 05:57:30;;;;;;;21.20;10.73;;;;;;;;;;2552532;23;20024;-78
2023/05/03 05:58:51;;;;;;;14.52;9.88;;;;;;;;;;2555613;23;20350;-78
2023/05/03 06:00:16;;;;;;;17.77;10.18;;;;;;;;;;2556861;23;20013;-78
2023/05/03 06:01:40;;;;;;;14.98;9.95;;;;;;;;;;2557033;23;20017;-77
2023/05/03 06:03:01;;;;;;;14.02;9.93;;;;;;;;;;2545054;23;20017;-78
2023/05/03 06:04:22;;;;;;;16.73;9.38;;;;;;;;;;2553470;23;20013;-78
2023/05/03 06:05:43;;;;;;;18.05;9.45;;;;;;;;;;2557671;23;20346;-78
2023/05/03 06:07:03;;;;;;;12.50;9.07;;;;;;;;;;2558756;23;20016;-77
2023/05/03 06:08:24;;;;;;;12.10;9.15;;;;;;;;;;2557671;23;20005;-77
2023/05/03 06:09:45;;;;;;;14.43;9.02;;;;;;;;;;2557942;23;20013;-77
2023/05/03 06:11:06;;;;;;;14.90;9.18;;;;;;;;;;2556858;23;20016;-77
2023/05/03 06:12:27;;;;;;;15.85;8.57;;;;;;;;;;2556295;23;20013;-77
2023/05/03 06:13:48;;;;;;;15.75;9.60;;;;;;;;;;2542475;23;20020;-78
2023/05/03 06:15:09;;;;;;;20.17;10.55;;;;;;;;;;2552729;23;20009;-77
2023/05/03 06:16:30;;;;;;;13.27;9.02;;;;;;;;;;2547507;23;20081;-78
2023/05/03 06:17:51;;;;;;;25.20;11.73;;;;;;;;;;2539112;23;20017;-77
2023/05/03 06:19:12;;;;;;;16.13;9.52;;;;;;;;;;2553601;23;20012;-77
2023/05/03 06:20:33;;;;;;;11.95;9.18;;;;;;;;;;2557145;23;20016;-77
2023/05/03 06:21:53;;;;;;;19.00;10.27;;;;;;;;;;2558591;23;20463;-78
2023/05/03 06:23:14;;;;;;;14.07;8.93;;;;;;;;;;2544854;23;20017;-77
2023/05/03 06:24:35;;;;;;;18.25;8.50;;;;;;;;;;2552405;23;20452;-78
2023/05/03 06:25:56;;;;;;;15.27;9.43;;;;;;;;;;2555667;23;20048;-77
2023/05/03 06:27:17;;;;;;;20.20;8.77;;;;;;;;;;2544399;23;20343;-78
2023/05/03 06:28:38;;;;;;;18.33;9.43;;;;;;;;;;2553278;23;20009;-78
2023/05/03 06:29:59;;;;;;;14.95;8.55;;;;;;;;;;2558696;23;20009;-78
2023/05/03 06:31:20;;;;;;;13.27;8.00;;;;;;;;;;2544752;23;20010;-78
2023/05/03 06:32:41;;;;;;;15.25;8.25;;;;;;;;;;2542263;23;20013;-77
2023/05/03 06:34:02;;;;;;;13.80;8.23;;;;;;;;;;2554104;23;20338;-77
2023/05/03 06:35:23;;;;;;;14.88;8.48;;;;;;;;;;2544282;23;20017;-78
2023/05/03 06:36:44;;;;;;;11.70;7.35;;;;;;;;;;2554330;23;20013;-79
2023/05/03 06:38:04;;;;;;;18.02;8.52;;;;;;;;;;2543541;23;20013;-77
2023/05/03 06:39:25;;;;;;;12.68;7.38;;;;;;;;;;2553852;23;20005;-77
2023/05/03 06:40:47;;;;;;;15.60;8.63;;;;;;;;;;2557323;23;20403;-78
2023/05/03 06:42:07;;;;;;;13.57;7.45;;;;;;;;;;2555459;23;20021;-78
2023/05/03 06:43:29;;;;;;;21.77;8.27;;;;;;;;;;2554170;23;20027;-78
2023/05/03 06:44:50;;;;;;;9.55;7.45;;;;;;;;;;2557152;23;20524;-72
2023/05/03 06:46:11;;;;;;;19.73;8.00;;;;;;;;;;2557303;23;20016;-72
2023/05/03 06:47:32;;;;;;;12.93;7.07;;;;;;;;;;2556101;23;20453;-72
2023/05/03 06:48:55;;;;;;;13.95;7.70;;;;;;;;;;2558458;23;20016;-73
2023/05/03 06:50:16;;;;;;;12.40;7.55;;;;;;;;;;2545270;23;20040;-71
2023/05/03 06:51:36;;;;;;;11.60;7.60;;;;;;;;;;2552174;23;20328;-73
2023/05/03 06:52:57;;;;;;;14.13;8.00;;;;;;;;;;2544143;23;20022;-71
2023/05/03 06:54:19;;;;;;;15.77;7.55;;;;;;;;;;2545451;23;20009;-71
2023/05/03 06:55:42;;;;;;;18.13;8.15;;;;;;;;;;2543999;23;20005;-71
2023/05/03 06:57:04;;;;;;;15.23;9.35;;;;;;;;;;2544446;23;20020;-72
2023/05/03 06:58:25;;;;;;;15.05;8.77;;;;;;;;;;2531942;23;20013;-72
2023/05/03 06:59:46;;;;;;;13.27;7.50;;;;;;;;;;2542569;23;20010;-71
2023/05/03 07:01:07;;;;;;;14.73;8.00;;;;;;;;;;2542716;23;20010;-72
2023/05/03 07:02:30;;;;;;;9.80;6.70;;;;;;;;;;2537696;23;20364;-72
2023/05/03 07:03:51;;;;;;;12.88;7.53;;;;;;;;;;2546541;23;20010;-71
2023/05/03 07:05:12;;;;;;;15.25;7.78;;;;;;;;;;2540933;23;20049;-72
2023/05/03 07:06:34;;;;;;;13.68;8.07;;;;;;;;;;2552033;23;20013;-72
2023/05/03 07:07:55;;;;;;;10.48;7.38;;;;;;;;;;2545942;23;20006;-72
2023/05/03 07:09:17;;;;;;;10.15;7.20;;;;;;;;;;2541913;23;20435;-72
2023/05/03 07:10:38;;;;;;;17.75;7.95;;;;;;;;;;2542331;23;20013;-72
2023/05/03 07:11:59;;;;;;;22.98;8.70;;;;;;;;;;2549959;23;20016;-72
2023/05/03 07:13:25;;;;;;;12.80;7.85;;;;;;;;;;2557611;23;20389;-72
2023/05/03 07:14:46;;;;;;;10.07;7.40;;;;;;;;;;2558429;23;20343;-73
2023/05/03 07:16:07;;;;;;;13.27;8.00;;;;;;;;;;2556125;23;20497;-73
2023/05/03 07:17:28;;;;;;;14.60;7.95;;;;;;;;;;2556920;23;20005;-73
2023/05/03 07:18:48;;;;;;;12.98;7.20;;;;;;;;;;2557626;23;20009;-73
2023/05/03 07:20:10;;;;;;;17.30;7.53;;;;;;;;;;2557535;23;20009;-70
2023/05/03 07:21:30;;;;;;;12.82;7.43;;;;;;;;;;2558343;23;20016;-73
2023/05/03 07:22:51;;;;;;;9.95;7.38;;;;;;;;;;2529645;23;20017;-72
2023/05/03 07:24:12;;;;;;;20.05;9.20;;;;;;;;;;2527041;23;20010;-72
2023/05/03 07:25:34;;;;;;;10.38;7.18;;;;;;;;;;2541178;23;20009;-73
2023/05/03 07:26:54;;;;;;;14.13;7.90;;;;;;;;;;2545052;23;20535;-74
2023/05/03 07:28:15;;;;;;;12.68;7.40;;;;;;;;;;2547773;23;20384;-72
2023/05/03 07:29:36;;;;;;;15.38;8.20;;;;;;;;;;2535813;23;20497;-72
2023/05/03 07:30:58;;;;;;;10.40;6.95;;;;;;;;;;2541089;23;20016;-73
2023/05/03 07:32:21;;;;;;;9.93;7.28;;;;;;;;;;2543728;23;20021;-72
2023/05/03 07:33:42;;;;;;;16.90;7.40;;;;;;;;;;2543834;23;20277;-72
2023/05/03 07:35:03;;;;;;;17.42;8.50;;;;;;;;;;2544780;23;20006;-72
2023/05/03 07:36:25;;;;;;;12.43;7.60;;;;;;;;;;2546052;23;20013;-72
2023/05/03 07:37:46;;;;;;;12.65;7.80;;;;;;;;;;2546232;23;20016;-72
2023/05/03 07:39:07;;;;;;;10.65;6.72;;;;;;;;;;2543280;23;20009;-72
2023/05/03 07:40:31;;;;;;;13.73;7.03;;;;;;;;;;2545485;23;20014;-71
2023/05/03 07:41:52;;;;;;;11.00;7.07;;;;;;;;;;2544369;23;20388;-73
2023/05/03 07:43:15;;;;;;;9.93;6.57;;;;;;;;;;2543504;23;20014;-72
2023/05/03 07:44:36;;;;;;;12.65;6.97;;;;;;;;;;2545102;23;20018;-71
2023/05/03 07:45:57;;;;;;;9.77;6.55;;;;;;;;;;2543159;23;20036;-72
2023/05/03 07:47:18;;;;;;;7.43;6.07;;;;;;;;;;2545501;23;20056;-72
2023/05/03 07:48:38;;;;;;;10.63;6.55;;;;;;;;;;2531085;23;20380;-72
2023/05/03 07:50:00;;;;;;;11.05;6.97;;;;;;;;;;2531497;23;20010;-73
2023/05/03 07:51:21;;;;;;;9.48;6.03;;;;;;;;;;2541701;23;20016;-73
2023/05/03 07:52:42;;;;;;;10.52;6.07;;;;;;;;;;2555454;23;20021;-72
2023/05/03 07:54:03;;;;;;;15.45;7.13;;;;;;;;;;2547689;23;20009;-71
2023/05/03 07:55:24;;;;;;;12.23;6.65;;;;;;;;;;2554284;23;20005;-73
2023/05/03 07:56:45;;;;;;;10.48;6.45;;;;;;;;;;2549034;23;20018;-72
2023/05/03 07:58:07;;;;;;;11.40;6.00;;;;;;;;;;2546337;23;20014;-72
2023/05/03 07:59:28;;;;;;;11.80;5.68;;;;;;;;;;2545405;23;20344;-73
2023/05/03 08:00:50;;;;;;;11.30;5.82;;;;;;;;;;2542491;23;20020;-74